createdAt,value
2023-02-11T00:02:21.779Z,33.72
2023-02-11T00:07:31.696Z,33.08
2023-02-11T00:12:39.705Z,30.73
2023-02-11T00:17:46.596Z,30.52
2023-02-11T00:22:54.844Z,35.78
2023-02-11T00:28:01.272Z,30.60
2023-02-11T00:33:08.028Z,28.15
2023-02-11T00:38:15.901Z,31.20
2023-02-11T00:43:22.269Z,31.02
2023-02-11T00:48:30.379Z,28.05
2023-02-11T00:53:38.960Z,19.95
2023-02-11T00:58:45.443Z,21.70
2023-02-11T01:03:51.987Z,21.88
2023-02-11T01:09:08.810Z,26.33
2023-02-11T01:14:15.293Z,26.80
2023-02-11T01:19:21.508Z,26.65
2023-02-11T01:24:29.193Z,21.88
2023-02-11T01:29:35.456Z,25.88
2023-02-11T01:34:41.753Z,27.63
2023-02-11T01:39:49.480Z,27.33
2023-02-11T01:44:59.415Z,27.50
2023-02-11T01:50:06.520Z,26.58
2023-02-11T01:55:38.245Z,26.48
2023-02-11T02:00:44.573Z,29.40
2023-02-11T02:05:57.724Z,22.50
2023-02-11T02:11:06.753Z,20.88
2023-02-11T02:22:21.367Z,19.52
2023-02-11T02:27:42.956Z,22.25
2023-02-11T02:33:23.131Z,22.83
2023-02-11T02:38:36.706Z,24.13
2023-02-11T02:43:48.208Z,24.80
2023-02-11T02:48:57.383Z,22.27
2023-02-11T02:54:31.385Z,20.70
2023-02-11T02:59:51.768Z,20.15
2023-02-11T03:05:08.164Z,24.80
2023-02-11T03:10:21.338Z,20.08
2023-02-11T03:15:32.259Z,23.58
2023-02-11T03:20:43.893Z,23.50
2023-02-11T03:25:57.715Z,23.77
2023-02-11T03:31:16.359Z,23.90
2023-02-11T03:36:30.224Z,23.40
2023-02-11T03:41:37.301Z,29.20
2023-02-11T03:46:50.383Z,23.85
2023-02-11T03:51:59.836Z,25.08
2023-02-11T03:57:06.398Z,30.42
2023-02-11T04:02:12.918Z,24.77
2023-02-11T04:07:20.824Z,29.95
2023-02-11T04:12:26.994Z,27.13
2023-02-11T04:17:33.461Z,33.53
2023-02-11T04:22:41.106Z,34.08
2023-02-11T04:27:47.271Z,30.45
2023-02-11T04:32:54.534Z,29.20
2023-02-11T04:38:02.035Z,32.38
2023-02-11T04:43:08.549Z,29.60
2023-02-11T04:48:14.882Z,27.58
2023-02-11T04:53:22.827Z,29.27
2023-02-11T04:58:29.167Z,31.52
2023-02-11T05:03:35.400Z,32.67
2023-02-11T05:08:43.222Z,26.27
2023-02-11T05:13:50.167Z,27.27
2023-02-11T05:18:56.921Z,28.13
2023-02-11T05:24:04.636Z,33.95
2023-02-11T05:29:11.110Z,35.72
2023-02-11T05:34:17.666Z,32.78
2023-02-11T05:39:25.555Z,33.55
2023-02-11T05:44:32.073Z,36.93
2023-02-11T05:49:38.772Z,33.10
2023-02-11T05:54:46.815Z,27.40
2023-02-11T05:59:53.358Z,33.10
2023-02-11T06:05:00.008Z,32.63
2023-02-11T06:10:09.616Z,28.27
2023-02-11T06:15:15.847Z,35.75
2023-02-11T06:20:22.814Z,30.80
2023-02-11T06:25:30.781Z,28.30
2023-02-11T06:30:38.206Z,35.78
2023-02-11T06:35:44.569Z,30.75
2023-02-11T06:40:52.663Z,35.30
2023-02-11T06:45:58.872Z,37.43
2023-02-11T06:51:06.826Z,32.88
2023-02-11T06:56:17.631Z,37.53
2023-02-11T07:01:25.342Z,30.27
2023-02-11T07:06:31.621Z,31.55
2023-02-11T07:11:39.410Z,32.35
2023-02-11T07:16:45.868Z,34.40
2023-02-11T07:21:52.770Z,33.65
2023-02-11T07:27:00.669Z,35.03
2023-02-11T07:32:07.667Z,34.25
2023-02-11T07:37:14.149Z,38.13
2023-02-11T07:42:22.126Z,34.78
2023-02-11T07:47:28.572Z,34.88
2023-02-11T07:52:34.793Z,34.47
2023-02-11T07:57:42.710Z,36.83
2023-02-11T08:02:49.160Z,34.17
2023-02-11T08:07:56.171Z,35.67
2023-02-11T08:13:03.884Z,40.08
2023-02-11T08:18:10.191Z,37.55
2023-02-11T08:23:16.344Z,38.70
2023-02-11T08:28:24.063Z,36.60
2023-02-11T08:33:30.317Z,33.20
2023-02-11T08:38:36.619Z,39.95
2023-02-11T08:43:45.541Z,40.17
2023-02-11T08:48:52.018Z,34.67
2023-02-11T08:53:58.986Z,41.53
2023-02-11T08:59:07.408Z,40.90
2023-02-11T09:04:13.655Z,32.25
2023-02-11T09:09:20.266Z,41.80
2023-02-11T09:14:28.858Z,42.30
2023-02-11T09:19:36.340Z,39.35
2023-02-11T09:24:42.435Z,37.13
2023-02-11T09:29:54.259Z,45.30
2023-02-11T09:35:01.195Z,40.80
2023-02-11T09:40:09.206Z,38.40
2023-02-11T09:45:21.993Z,41.47
2023-02-11T09:50:35.687Z,42.78
2023-02-11T09:55:46.856Z,41.55
2023-02-11T10:01:06.768Z,38.03
2023-02-11T10:06:47.785Z,41.10
2023-02-11T10:12:12.730Z,43.60
2023-02-11T10:17:34.070Z,44.58
2023-02-11T10:22:44.852Z,43.95
2023-02-11T10:27:53.238Z,44.70
2023-02-11T10:33:08.833Z,42.25
2023-02-11T10:38:15.296Z,41.25
2023-02-11T10:43:27.953Z,48.13
2023-02-11T10:48:46.928Z,44.22
2023-02-11T10:54:21.573Z,40.60
2023-02-11T10:59:32.523Z,48.03
2023-02-11T11:04:45.225Z,44.67
2023-02-11T11:09:56.031Z,44.25
2023-02-11T11:15:16.738Z,48.67
2023-02-11T11:20:29.642Z,45.75
2023-02-11T11:25:37.765Z,52.83
2023-02-11T11:30:45.909Z,46.92
2023-02-11T11:36:08.166Z,31.87
2023-02-11T11:41:26.893Z,44.10
2023-02-11T11:46:37.934Z,41.35
2023-02-11T11:51:53.678Z,41.72
2023-02-11T11:57:06.825Z,45.50
2023-02-11T12:03:11.544Z,50.78
2023-02-11T12:08:30.383Z,38.17
2023-02-11T12:14:02.587Z,41.65
2023-02-11T12:19:44.349Z,39.53
2023-02-11T12:25:18.535Z,43.33
2023-02-11T12:31:05.544Z,43.08
2023-02-11T12:36:23.218Z,44.60
2023-02-11T12:42:08.101Z,38.72
2023-02-11T12:47:24.544Z,39.58
2023-02-11T12:52:49.685Z,43.17
2023-02-11T12:58:00.871Z,37.22
2023-02-11T13:03:15.657Z,43.53
2023-02-11T13:08:28.039Z,41.03
2023-02-11T13:13:47.925Z,43.67
2023-02-11T13:19:04.165Z,40.80
2023-02-11T13:31:30.465Z,41.85
2023-02-11T13:36:37.929Z,39.55
2023-02-11T13:41:52.476Z,38.03
2023-02-11T13:47:06.429Z,41.97
2023-02-11T13:52:26.560Z,38.55
2023-02-11T13:57:40.525Z,43.22
2023-02-11T14:03:51.604Z,45.35
2023-02-11T14:09:32.485Z,43.20
2023-02-11T14:15:20.706Z,41.40
2023-02-11T14:20:48.452Z,36.27
2023-02-11T14:26:11.727Z,40.80
2023-02-11T14:31:24.645Z,38.55
2023-02-11T14:37:02.920Z,35.35
2023-02-11T14:42:22.689Z,26.40
2023-02-11T14:47:39.298Z,33.72
2023-02-11T14:52:49.269Z,32.65
2023-02-11T16:12:27.524Z,20.75
2023-02-11T16:17:36.959Z,20.60
2023-02-11T16:22:50.282Z,20.95
2023-02-11T16:28:00.654Z,22.52
2023-02-11T16:33:09.190Z,19.58
2023-02-11T16:38:21.697Z,21.25
2023-02-11T16:43:35.316Z,24.10
2023-02-11T16:48:49.088Z,22.58
2023-02-11T16:53:59.153Z,18.77
2023-02-11T17:00:25.859Z,18.35
2023-02-11T17:05:54.235Z,18.75
2023-02-11T17:11:06.023Z,23.63
2023-02-11T17:16:25.823Z,20.65
2023-02-11T17:21:36.831Z,18.13
2023-02-11T17:26:47.981Z,19.77
2023-02-11T17:33:36.106Z,18.40
2023-02-11T17:53:40.320Z,18.48
2023-02-11T17:58:53.838Z,20.55
2023-02-11T18:04:05.304Z,18.75
2023-02-11T18:09:16.992Z,16.50
2023-02-11T18:14:26.128Z,14.35
2023-02-11T18:19:38.547Z,18.42
2023-02-11T18:24:54.346Z,14.70
2023-02-11T18:30:08.349Z,18.55
2023-02-11T18:43:32.371Z,14.98
2023-02-11T18:48:45.798Z,14.38
2023-02-11T18:53:56.910Z,14.88
2023-02-11T18:59:11.010Z,12.13
2023-02-11T19:04:21.630Z,14.88
2023-02-11T19:09:33.111Z,12.20
2023-02-11T19:14:46.799Z,18.20
2023-02-11T19:19:56.578Z,16.95
2023-02-11T19:33:19.471Z,12.90
2023-02-11T19:38:29.724Z,14.02
2023-02-11T19:43:39.361Z,16.40
2023-02-11T19:48:58.144Z,17.92
2023-02-11T19:59:19.023Z,14.75
2023-02-11T20:04:34.710Z,14.73
2023-02-11T20:09:44.553Z,14.00
2023-02-11T20:14:56.194Z,13.00
2023-02-11T20:20:12.899Z,17.00
2023-02-11T20:33:36.150Z,16.75
2023-02-11T20:41:42.156Z,16.20
2023-02-11T20:48:00.156Z,13.32
2023-02-11T20:53:18.583Z,17.60
2023-02-11T20:58:43.851Z,16.02
2023-02-11T21:04:07.991Z,15.07
2023-02-11T21:09:31.512Z,17.10
2023-02-11T21:14:52.832Z,14.60
2023-02-11T21:20:10.471Z,11.82
2023-02-11T21:25:23.269Z,10.80
2023-02-11T21:30:39.193Z,5.43
2023-02-11T21:35:49.451Z,7.68
2023-02-11T21:41:05.579Z,7.07
2023-02-11T21:46:22.155Z,3.55
2023-02-11T21:51:30.728Z,2.60
2023-02-11T21:56:39.699Z,2.73
2023-02-11T22:01:53.810Z,2.85
2023-02-11T22:07:00.947Z,2.50
2023-02-11T22:12:10.210Z,2.97
2023-02-11T22:17:18.958Z,4.25
2023-02-11T22:27:32.802Z,7.32
2023-02-11T22:32:42.939Z,4.90
2023-02-11T22:37:50.091Z,8.95
2023-02-11T22:42:56.859Z,8.43
2023-02-11T22:48:04.897Z,16.05
2023-02-11T22:53:11.767Z,4.60
2023-02-11T22:58:19.194Z,2.67
2023-02-11T23:03:28.547Z,5.65
2023-02-11T23:08:36.038Z,4.47
2023-02-11T23:13:44.624Z,3.25
2023-02-11T23:18:52.871Z,1.42
2023-02-11T23:24:02.111Z,3.05
2023-02-11T23:29:08.955Z,4.50
2023-02-11T23:34:20.738Z,1.00
2023-02-11T23:39:27.813Z,2.58
2023-02-11T23:44:34.852Z,1.67
2023-02-11T23:49:42.972Z,2.65
2023-02-11T23:54:50.072Z,0.93
2023-02-11T23:59:57.146Z,1.48
